Patetown, North Carolina
Current Conditions -  °F | °C
As of 9:15 AM on Sunday 23 Nov 2014 (Local Time) from KGWW Reporting Station
Clear Clear  
Wind Chill: 45°   Ceiling: Unl
Heat Index: 45°   Visibility: 10mi
Dew Point: 37°   Wind: 0mph
Humidity: 76%   Direction: NA
Pressure: 30.25"   Gusts: NA
Location:  35.4141°N, 78.0215°W
Report Text: KGWW 231415Z AUTO 00000KT 10SM CLR 07/03 A3025 RMK AO2 T00700030
Loading
Personal Weather Stations






























Interactive Weather Map New forecast layout! Learn more

10-Day Weather Forecast

Advertisements
Track Severe Weather on mobile